sensor_id;sensor_type;location;lat;lon;timestamp;P1;durP1;ratioP1;P2;durP2;ratioP2
10657;SDS011;5377;43.276;26.930;2023-03-04T00:01:22;30.67;;;22.73;;
10657;SDS011;5377;43.276;26.930;2023-03-04T00:03:49;32.07;;;22.37;;
10657;SDS011;5377;43.276;26.930;2023-03-04T00:06:15;32.10;;;21.17;;
10657;SDS011;5377;43.276;26.930;2023-03-04T00:08:42;34.88;;;28.90;;
10657;SDS011;5377;43.276;26.930;2023-03-04T00:11:10;33.77;;;25.63;;
10657;SDS011;5377;43.276;26.930;2023-03-04T00:13:37;32.73;;;24.53;;
10657;SDS011;5377;43.276;26.930;2023-03-04T00:16:04;32.50;;;24.57;;
10657;SDS011;5377;43.276;26.930;2023-03-04T00:18:31;32.33;;;24.27;;
10657;SDS011;5377;43.276;26.930;2023-03-04T00:20:58;31.13;;;23.83;;
10657;SDS011;5377;43.276;26.930;2023-03-04T00:23:24;32.70;;;22.60;;
10657;SDS011;5377;43.276;26.930;2023-03-04T00:25:51;31.60;;;23.63;;
10657;SDS011;5377;43.276;26.930;2023-03-04T00:28:19;33.47;;;24.17;;
10657;SDS011;5377;43.276;26.930;2023-03-04T00:30:46;33.80;;;23.90;;
10657;SDS011;5377;43.276;26.930;2023-03-04T00:33:13;33.03;;;24.07;;
10657;SDS011;5377;43.276;26.930;2023-03-04T00:35:40;33.23;;;22.87;;
10657;SDS011;5377;43.276;26.930;2023-03-04T00:38:07;34.87;;;24.63;;
10657;SDS011;5377;43.276;26.930;2023-03-04T00:40:34;33.83;;;24.97;;
10657;SDS011;5377;43.276;26.930;2023-03-04T00:43:01;35.67;;;24.90;;
10657;SDS011;5377;43.276;26.930;2023-03-04T00:45:29;35.00;;;24.30;;
10657;SDS011;5377;43.276;26.930;2023-03-04T00:47:56;33.33;;;24.00;;
10657;SDS011;5377;43.276;26.930;2023-03-04T00:50:23;36.70;;;25.10;;
10657;SDS011;5377;43.276;26.930;2023-03-04T00:52:50;33.80;;;24.60;;
10657;SDS011;5377;43.276;26.930;2023-03-04T00:55:16;34.70;;;25.47;;
10657;SDS011;5377;43.276;26.930;2023-03-04T00:57:43;37.07;;;25.03;;
10657;SDS011;5377;43.276;26.930;2023-03-04T01:00:11;36.30;;;25.07;;
10657;SDS011;5377;43.276;26.930;2023-03-04T01:02:39;35.17;;;23.87;;
10657;SDS011;5377;43.276;26.930;2023-03-04T01:05:07;37.30;;;24.87;;
10657;SDS011;5377;43.276;26.930;2023-03-04T01:07:34;37.47;;;25.33;;
10657;SDS011;5377;43.276;26.930;2023-03-04T01:10:01;37.20;;;25.93;;
10657;SDS011;5377;43.276;26.930;2023-03-04T01:12:28;38.30;;;25.50;;
10657;SDS011;5377;43.276;26.930;2023-03-04T01:14:54;37.30;;;24.53;;
10657;SDS011;5377;43.276;26.930;2023-03-04T01:17:21;37.77;;;26.10;;
10657;SDS011;5377;43.276;26.930;2023-03-04T01:19:49;32.67;;;25.23;;
10657;SDS011;5377;43.276;26.930;2023-03-04T01:22:16;33.20;;;25.60;;
10657;SDS011;5377;43.276;26.930;2023-03-04T01:24:43;38.37;;;25.33;;
10657;SDS011;5377;43.276;26.930;2023-03-04T01:27:10;34.67;;;24.60;;
10657;SDS011;5377;43.276;26.930;2023-03-04T01:29:37;34.83;;;25.40;;
10657;SDS011;5377;43.276;26.930;2023-03-04T01:32:04;32.87;;;23.37;;
10657;SDS011;5377;43.276;26.930;2023-03-04T01:34:31;31.00;;;23.23;;
10657;SDS011;5377;43.276;26.930;2023-03-04T01:36:59;33.80;;;22.83;;
10657;SDS011;5377;43.276;26.930;2023-03-04T01:39:26;34.80;;;22.87;;
10657;SDS011;5377;43.276;26.930;2023-03-04T01:41:52;30.10;;;20.93;;
10657;SDS011;5377;43.276;26.930;2023-03-04T01:44:19;30.33;;;21.83;;
10657;SDS011;5377;43.276;26.930;2023-03-04T01:46:47;34.63;;;23.50;;
10657;SDS011;5377;43.276;26.930;2023-03-04T01:49:16;34.30;;;23.23;;
10657;SDS011;5377;43.276;26.930;2023-03-04T01:51:45;33.63;;;23.67;;
10657;SDS011;5377;43.276;26.930;2023-03-04T01:54:15;32.67;;;21.90;;
10657;SDS011;5377;43.276;26.930;2023-03-04T01:56:43;29.03;;;19.97;;
10657;SDS011;5377;43.276;26.930;2023-03-04T01:59:11;31.30;;;21.33;;
10657;SDS011;5377;43.276;26.930;2023-03-04T02:01:40;29.93;;;21.57;;
10657;SDS011;5377;43.276;26.930;2023-03-04T02:04:09;37.17;;;21.43;;
10657;SDS011;5377;43.276;26.930;2023-03-04T02:06:37;30.37;;;20.90;;
10657;SDS011;5377;43.276;26.930;2023-03-04T02:09:05;28.63;;;21.10;;
10657;SDS011;5377;43.276;26.930;2023-03-04T02:11:34;31.87;;;21.77;;
10657;SDS011;5377;43.276;26.930;2023-03-04T02:14:03;29.43;;;21.80;;
10657;SDS011;5377;43.276;26.930;2023-03-04T02:16:31;32.73;;;23.03;;
10657;SDS011;5377;43.276;26.930;2023-03-04T02:18:58;32.60;;;23.03;;
10657;SDS011;5377;43.276;26.930;2023-03-04T02:21:26;32.50;;;22.83;;
10657;SDS011;5377;43.276;26.930;2023-03-04T02:23:57;31.60;;;22.83;;
10657;SDS011;5377;43.276;26.930;2023-03-04T02:26:31;32.37;;;23.43;;
10657;SDS011;5377;43.276;26.930;2023-03-04T02:28:59;34.63;;;22.90;;
10657;SDS011;5377;43.276;26.930;2023-03-04T02:31:29;32.90;;;22.67;;
10657;SDS011;5377;43.276;26.930;2023-03-04T02:33:58;36.93;;;24.93;;
10657;SDS011;5377;43.276;26.930;2023-03-04T02:36:27;33.07;;;24.33;;
10657;SDS011;5377;43.276;26.930;2023-03-04T02:38:55;36.73;;;23.67;;
10657;SDS011;5377;43.276;26.930;2023-03-04T02:41:28;34.27;;;23.40;;
10657;SDS011;5377;43.276;26.930;2023-03-04T02:43:57;32.17;;;24.20;;
10657;SDS011;5377;43.276;26.930;2023-03-04T02:46:23;35.00;;;22.80;;
10657;SDS011;5377;43.276;26.930;2023-03-04T02:48:50;35.90;;;23.27;;
10657;SDS011;5377;43.276;26.930;2023-03-04T02:51:17;35.07;;;23.87;;
10657;SDS011;5377;43.276;26.930;2023-03-04T02:53:44;28.73;;;22.23;;
10657;SDS011;5377;43.276;26.930;2023-03-04T02:56:11;32.20;;;22.67;;
10657;SDS011;5377;43.276;26.930;2023-03-04T02:58:38;30.97;;;22.67;;
10657;SDS011;5377;43.276;26.930;2023-03-04T03:01:06;35.80;;;23.23;;
10657;SDS011;5377;43.276;26.930;2023-03-04T03:03:33;30.57;;;22.37;;
10657;SDS011;5377;43.276;26.930;2023-03-04T03:06:00;34.30;;;21.57;;
10657;SDS011;5377;43.276;26.930;2023-03-04T03:08:27;29.17;;;20.13;;
10657;SDS011;5377;43.276;26.930;2023-03-04T03:10:54;30.50;;;20.07;;
10657;SDS011;5377;43.276;26.930;2023-03-04T03:13:20;28.33;;;19.50;;
10657;SDS011;5377;43.276;26.930;2023-03-04T03:15:47;27.63;;;19.77;;
10657;SDS011;5377;43.276;26.930;2023-03-04T03:18:15;25.47;;;18.00;;
10657;SDS011;5377;43.276;26.930;2023-03-04T03:20:42;23.47;;;17.63;;
10657;SDS011;5377;43.276;26.930;2023-03-04T03:23:09;26.17;;;19.37;;
10657;SDS011;5377;43.276;26.930;2023-03-04T03:25:36;22.33;;;17.60;;
10657;SDS011;5377;43.276;26.930;2023-03-04T03:28:02;25.60;;;17.77;;
10657;SDS011;5377;43.276;26.930;2023-03-04T03:30:29;27.17;;;19.83;;
10657;SDS011;5377;43.276;26.930;2023-03-04T03:32:56;28.80;;;20.33;;
10657;SDS011;5377;43.276;26.930;2023-03-04T03:35:24;28.73;;;20.00;;
10657;SDS011;5377;43.276;26.930;2023-03-04T03:37:51;26.73;;;19.87;;
10657;SDS011;5377;43.276;26.930;2023-03-04T03:40:18;27.10;;;18.67;;
10657;SDS011;5377;43.276;26.930;2023-03-04T03:42:45;25.43;;;17.97;;
10657;SDS011;5377;43.276;26.930;2023-03-04T03:45:11;24.83;;;17.80;;
10657;SDS011;5377;43.276;26.930;2023-03-04T03:47:38;23.27;;;16.80;;
10657;SDS011;5377;43.276;26.930;2023-03-04T03:50:05;21.00;;;16.93;;
10657;SDS011;5377;43.276;26.930;2023-03-04T03:52:34;23.90;;;17.63;;
10657;SDS011;5377;43.276;26.930;2023-03-04T03:55:01;23.20;;;16.77;;
10657;SDS011;5377;43.276;26.930;2023-03-04T03:57:27;23.20;;;16.47;;
10657;SDS011;5377;43.276;26.930;2023-03-04T03:59:55;21.13;;;16.10;;
10657;SDS011;5377;43.276;26.930;2023-03-04T04:02:22;22.50;;;15.77;;
10657;SDS011;5377;43.276;26.930;2023-03-04T04:04:49;21.87;;;15.63;;
10657;SDS011;5377;43.276;26.930;2023-03-04T04:07:15;22.07;;;14.87;;
10657;SDS011;5377;43.276;26.930;2023-03-04T04:09:44;22.60;;;15.83;;
10657;SDS011;5377;43.276;26.930;2023-03-04T04:12:12;22.43;;;15.43;;
10657;SDS011;5377;43.276;26.930;2023-03-04T04:14:40;19.07;;;13.00;;
10657;SDS011;5377;43.276;26.930;2023-03-04T04:17:07;19.73;;;15.60;;
10657;SDS011;5377;43.276;26.930;2023-03-04T04:19:35;23.10;;;15.87;;
10657;SDS011;5377;43.276;26.930;2023-03-04T04:22:04;21.33;;;15.13;;
10657;SDS011;5377;43.276;26.930;2023-03-04T04:24:31;21.60;;;13.97;;
10657;SDS011;5377;43.276;26.930;2023-03-04T04:26:59;14.97;;;12.17;;
10657;SDS011;5377;43.276;26.930;2023-03-04T04:29:27;18.00;;;11.60;;
10657;SDS011;5377;43.276;26.930;2023-03-04T04:31:54;15.33;;;11.67;;
10657;SDS011;5377;43.276;26.930;2023-03-04T04:34:20;15.50;;;11.20;;
10657;SDS011;5377;43.276;26.930;2023-03-04T04:36:47;19.50;;;12.40;;
10657;SDS011;5377;43.276;26.930;2023-03-04T04:39:14;18.60;;;11.97;;
10657;SDS011;5377;43.276;26.930;2023-03-04T04:41:41;17.63;;;11.90;;
10657;SDS011;5377;43.276;26.930;2023-03-04T04:44:11;17.90;;;12.03;;
10657;SDS011;5377;43.276;26.930;2023-03-04T04:46:39;11.63;;;9.23;;
10657;SDS011;5377;43.276;26.930;2023-03-04T04:49:07;18.80;;;11.83;;
10657;SDS011;5377;43.276;26.930;2023-03-04T04:51:34;18.13;;;12.03;;
10657;SDS011;5377;43.276;26.930;2023-03-04T04:54:03;14.13;;;11.23;;
10657;SDS011;5377;43.276;26.930;2023-03-04T04:56:31;14.93;;;10.87;;
10657;SDS011;5377;43.276;26.930;2023-03-04T04:58:59;17.13;;;11.43;;
10657;SDS011;5377;43.276;26.930;2023-03-04T05:01:29;17.60;;;13.17;;
10657;SDS011;5377;43.276;26.930;2023-03-04T05:03:56;16.90;;;11.53;;
10657;SDS011;5377;43.276;26.930;2023-03-04T05:06:23;17.87;;;12.97;;
10657;SDS011;5377;43.276;26.930;2023-03-04T05:08:50;19.13;;;14.07;;
10657;SDS011;5377;43.276;26.930;2023-03-04T05:11:17;21.57;;;14.20;;
10657;SDS011;5377;43.276;26.930;2023-03-04T05:13:45;21.13;;;15.50;;
10657;SDS011;5377;43.276;26.930;2023-03-04T05:16:12;22.10;;;14.90;;
10657;SDS011;5377;43.276;26.930;2023-03-04T05:18:40;22.93;;;16.57;;
10657;SDS011;5377;43.276;26.930;2023-03-04T05:21:08;21.50;;;16.20;;
10657;SDS011;5377;43.276;26.930;2023-03-04T05:23:36;21.87;;;16.63;;
10657;SDS011;5377;43.276;26.930;2023-03-04T05:26:05;25.90;;;18.43;;
10657;SDS011;5377;43.276;26.930;2023-03-04T05:28:33;24.40;;;17.73;;
10657;SDS011;5377;43.276;26.930;2023-03-04T05:31:00;26.50;;;18.67;;
10657;SDS011;5377;43.276;26.930;2023-03-04T05:33:27;25.07;;;17.70;;
10657;SDS011;5377;43.276;26.930;2023-03-04T05:35:55;20.77;;;13.83;;
10657;SDS011;5377;43.276;26.930;2023-03-04T05:38:23;21.77;;;15.17;;
10657;SDS011;5377;43.276;26.930;2023-03-04T05:40:54;18.90;;;14.13;;
10657;SDS011;5377;43.276;26.930;2023-03-04T05:43:23;22.53;;;15.53;;
10657;SDS011;5377;43.276;26.930;2023-03-04T05:45:50;21.33;;;14.77;;
10657;SDS011;5377;43.276;26.930;2023-03-04T05:48:16;19.80;;;14.03;;
10657;SDS011;5377;43.276;26.930;2023-03-04T05:50:43;24.03;;;18.20;;
10657;SDS011;5377;43.276;26.930;2023-03-04T05:53:11;22.83;;;14.83;;
10657;SDS011;5377;43.276;26.930;2023-03-04T05:55:39;27.20;;;20.50;;
10657;SDS011;5377;43.276;26.930;2023-03-04T05:58:05;40.90;;;27.27;;
10657;SDS011;5377;43.276;26.930;2023-03-04T06:00:32;35.97;;;26.33;;
10657;SDS011;5377;43.276;26.930;2023-03-04T06:02:59;32.50;;;23.90;;
10657;SDS011;5377;43.276;26.930;2023-03-04T06:05:26;33.43;;;23.87;;
10657;SDS011;5377;43.276;26.930;2023-03-04T06:07:52;30.93;;;22.37;;
10657;SDS011;5377;43.276;26.930;2023-03-04T06:10:21;38.60;;;24.77;;
10657;SDS011;5377;43.276;26.930;2023-03-04T06:12:47;34.30;;;26.10;;
10657;SDS011;5377;43.276;26.930;2023-03-04T06:15:14;41.93;;;31.80;;
10657;SDS011;5377;43.276;26.930;2023-03-04T06:17:42;35.77;;;25.37;;
10657;SDS011;5377;43.276;26.930;2023-03-04T06:20:10;30.40;;;23.13;;
10657;SDS011;5377;43.276;26.930;2023-03-04T06:22:37;30.37;;;21.80;;
10657;SDS011;5377;43.276;26.930;2023-03-04T06:25:05;30.77;;;23.07;;
10657;SDS011;5377;43.276;26.930;2023-03-04T06:27:33;31.50;;;25.80;;
10657;SDS011;5377;43.276;26.930;2023-03-04T06:30:00;36.17;;;28.50;;
10657;SDS011;5377;43.276;26.930;2023-03-04T06:32:27;198.43;;;104.80;;
10657;SDS011;5377;43.276;26.930;2023-03-04T06:34:54;45.27;;;32.90;;
10657;SDS011;5377;43.276;26.930;2023-03-04T06:37:21;42.30;;;29.60;;
10657;SDS011;5377;43.276;26.930;2023-03-04T06:39:48;35.17;;;26.33;;
10657;SDS011;5377;43.276;26.930;2023-03-04T06:42:14;43.57;;;31.30;;
10657;SDS011;5377;43.276;26.930;2023-03-04T06:44:43;38.70;;;29.63;;
10657;SDS011;5377;43.276;26.930;2023-03-04T06:47:10;37.87;;;26.97;;
10657;SDS011;5377;43.276;26.930;2023-03-04T06:49:36;32.43;;;24.90;;
10657;SDS011;5377;43.276;26.930;2023-03-04T06:52:03;35.53;;;26.37;;
10657;SDS011;5377;43.276;26.930;2023-03-04T06:54:30;34.07;;;26.30;;
10657;SDS011;5377;43.276;26.930;2023-03-04T06:56:57;26.73;;;20.83;;
10657;SDS011;5377;43.276;26.930;2023-03-04T06:59:24;29.37;;;21.50;;
10657;SDS011;5377;43.276;26.930;2023-03-04T07:01:52;34.43;;;25.57;;
10657;SDS011;5377;43.276;26.930;2023-03-04T07:04:20;37.90;;;26.80;;
10657;SDS011;5377;43.276;26.930;2023-03-04T07:06:47;31.27;;;22.80;;
10657;SDS011;5377;43.276;26.930;2023-03-04T07:09:14;26.80;;;18.20;;
10657;SDS011;5377;43.276;26.930;2023-03-04T07:11:41;27.57;;;19.80;;
10657;SDS011;5377;43.276;26.930;2023-03-04T07:14:08;26.33;;;18.30;;
10657;SDS011;5377;43.276;26.930;2023-03-04T07:16:35;25.63;;;18.77;;
10657;SDS011;5377;43.276;26.930;2023-03-04T07:19:03;25.97;;;19.60;;
10657;SDS011;5377;43.276;26.930;2023-03-04T07:21:30;30.53;;;22.40;;
10657;SDS011;5377;43.276;26.930;2023-03-04T07:23:57;29.40;;;23.37;;
10657;SDS011;5377;43.276;26.930;2023-03-04T07:26:24;30.47;;;20.13;;
10657;SDS011;5377;43.276;26.930;2023-03-04T07:28:50;29.83;;;21.70;;
10657;SDS011;5377;43.276;26.930;2023-03-04T07:31:19;29.00;;;20.90;;
10657;SDS011;5377;43.276;26.930;2023-03-04T07:33:48;23.13;;;19.10;;
10657;SDS011;5377;43.276;26.930;2023-03-04T07:36:16;25.75;;;20.17;;
10657;SDS011;5377;43.276;26.930;2023-03-04T07:38:45;25.70;;;20.25;;
10657;SDS011;5377;43.276;26.930;2023-03-04T07:41:12;23.83;;;19.50;;
10657;SDS011;5377;43.276;26.930;2023-03-04T07:43:40;23.83;;;19.42;;
10657;SDS011;5377;43.276;26.930;2023-03-04T07:46:07;22.83;;;18.10;;
10657;SDS011;5377;43.276;26.930;2023-03-04T07:48:34;21.85;;;17.08;;
10657;SDS011;5377;43.276;26.930;2023-03-04T07:51:02;23.73;;;17.60;;
10657;SDS011;5377;43.276;26.930;2023-03-04T07:53:32;21.45;;;14.82;;
10657;SDS011;5377;43.276;26.930;2023-03-04T07:55:59;20.92;;;13.98;;
10657;SDS011;5377;43.276;26.930;2023-03-04T07:58:26;14.65;;;10.65;;
10657;SDS011;5377;43.276;26.930;2023-03-04T08:00:53;14.07;;;10.52;;
10657;SDS011;5377;43.276;26.930;2023-03-04T08:03:19;13.02;;;10.95;;
10657;SDS011;5377;43.276;26.930;2023-03-04T08:05:46;10.32;;;8.82;;
10657;SDS011;5377;43.276;26.930;2023-03-04T08:08:13;8.18;;;7.22;;
10657;SDS011;5377;43.276;26.930;2023-03-04T08:10:41;7.88;;;6.78;;
10657;SDS011;5377;43.276;26.930;2023-03-04T08:13:08;9.75;;;7.00;;
10657;SDS011;5377;43.276;26.930;2023-03-04T08:15:38;17.05;;;10.52;;
10657;SDS011;5377;43.276;26.930;2023-03-04T08:18:06;20.77;;;16.65;;
10657;SDS011;5377;43.276;26.930;2023-03-04T08:20:33;23.48;;;17.58;;
10657;SDS011;5377;43.276;26.930;2023-03-04T08:23:00;22.55;;;15.93;;
10657;SDS011;5377;43.276;26.930;2023-03-04T08:25:27;21.65;;;17.02;;
10657;SDS011;5377;43.276;26.930;2023-03-04T08:27:55;23.20;;;16.65;;
10657;SDS011;5377;43.276;26.930;2023-03-04T08:30:22;20.52;;;14.45;;
10657;SDS011;5377;43.276;26.930;2023-03-04T08:32:49;25.67;;;15.80;;
10657;SDS011;5377;43.276;26.930;2023-03-04T08:35:15;20.73;;;14.68;;
10657;SDS011;5377;43.276;26.930;2023-03-04T08:37:42;22.45;;;14.52;;
10657;SDS011;5377;43.276;26.930;2023-03-04T08:40:10;18.38;;;14.23;;
10657;SDS011;5377;43.276;26.930;2023-03-04T08:42:38;16.23;;;13.27;;
10657;SDS011;5377;43.276;26.930;2023-03-04T08:45:07;42.05;;;32.05;;
10657;SDS011;5377;43.276;26.930;2023-03-04T08:47:35;20.33;;;15.05;;
10657;SDS011;5377;43.276;26.930;2023-03-04T08:50:02;30.02;;;22.80;;
10657;SDS011;5377;43.276;26.930;2023-03-04T08:52:29;23.52;;;18.35;;
10657;SDS011;5377;43.276;26.930;2023-03-04T08:54:56;50.28;;;36.33;;
10657;SDS011;5377;43.276;26.930;2023-03-04T08:57:22;20.58;;;14.80;;
10657;SDS011;5377;43.276;26.930;2023-03-04T08:59:50;31.33;;;20.30;;
10657;SDS011;5377;43.276;26.930;2023-03-04T09:02:18;16.10;;;12.40;;
10657;SDS011;5377;43.276;26.930;2023-03-04T09:04:44;19.88;;;17.02;;
10657;SDS011;5377;43.276;26.930;2023-03-04T09:07:11;20.13;;;17.58;;
10657;SDS011;5377;43.276;26.930;2023-03-04T09:09:38;20.80;;;15.18;;
10657;SDS011;5377;43.276;26.930;2023-03-04T09:12:06;30.67;;;19.23;;
10657;SDS011;5377;43.276;26.930;2023-03-04T09:14:33;21.52;;;14.65;;
10657;SDS011;5377;43.276;26.930;2023-03-04T09:17:00;20.48;;;15.30;;
10657;SDS011;5377;43.276;26.930;2023-03-04T09:19:29;15.68;;;13.63;;
10657;SDS011;5377;43.276;26.930;2023-03-04T09:21:56;16.50;;;12.77;;
10657;SDS011;5377;43.276;26.930;2023-03-04T09:24:24;12.23;;;7.63;;
10657;SDS011;5377;43.276;26.930;2023-03-04T09:26:51;13.13;;;7.72;;
10657;SDS011;5377;43.276;26.930;2023-03-04T09:29:19;7.10;;;4.55;;
10657;SDS011;5377;43.276;26.930;2023-03-04T09:31:46;6.75;;;5.40;;
10657;SDS011;5377;43.276;26.930;2023-03-04T09:34:13;8.18;;;5.78;;
10657;SDS011;5377;43.276;26.930;2023-03-04T09:36:41;4.53;;;3.70;;
10657;SDS011;5377;43.276;26.930;2023-03-04T09:39:08;6.10;;;3.72;;
10657;SDS011;5377;43.276;26.930;2023-03-04T09:41:36;3.90;;;3.60;;
10657;SDS011;5377;43.276;26.930;2023-03-04T09:44:06;5.40;;;4.90;;
10657;SDS011;5377;43.276;26.930;2023-03-04T09:46:42;9.13;;;7.22;;
10657;SDS011;5377;43.276;26.930;2023-03-04T09:49:10;9.48;;;6.70;;
10657;SDS011;5377;43.276;26.930;2023-03-04T09:51:50;9.55;;;7.65;;
10657;SDS011;5377;43.276;26.930;2023-03-04T09:54:27;9.02;;;6.78;;
10657;SDS011;5377;43.276;26.930;2023-03-04T09:57:05;9.25;;;7.75;;
10657;SDS011;5377;43.276;26.930;2023-03-04T09:59:43;14.35;;;11.05;;
10657;SDS011;5377;43.276;26.930;2023-03-04T10:02:15;17.10;;;14.40;;
10657;SDS011;5377;43.276;26.930;2023-03-04T10:04:50;16.02;;;11.60;;
10657;SDS011;5377;43.276;26.930;2023-03-04T10:07:22;22.90;;;12.45;;
10657;SDS011;5377;43.276;26.930;2023-03-04T10:09:52;14.05;;;11.65;;
10657;SDS011;5377;43.276;26.930;2023-03-04T10:12:26;25.45;;;12.40;;
10657;SDS011;5377;43.276;26.930;2023-03-04T10:14:57;15.88;;;11.18;;
10657;SDS011;5377;43.276;26.930;2023-03-04T10:17:34;17.83;;;11.50;;
10657;SDS011;5377;43.276;26.930;2023-03-04T10:20:43;11.52;;;10.23;;
10657;SDS011;5377;43.276;26.930;2023-03-04T10:23:18;11.85;;;10.63;;
10657;SDS011;5377;43.276;26.930;2023-03-04T10:25:49;17.02;;;11.60;;
10657;SDS011;5377;43.276;26.930;2023-03-04T10:28:19;15.13;;;12.18;;
10657;SDS011;5377;43.276;26.930;2023-03-04T10:30:49;13.02;;;10.57;;
10657;SDS011;5377;43.276;26.930;2023-03-04T10:33:22;14.00;;;11.88;;
10657;SDS011;5377;43.276;26.930;2023-03-04T10:35:52;19.95;;;11.20;;
10657;SDS011;5377;43.276;26.930;2023-03-04T10:38:27;12.93;;;11.50;;
10657;SDS011;5377;43.276;26.930;2023-03-04T10:40:56;13.30;;;10.18;;
10657;SDS011;5377;43.276;26.930;2023-03-04T10:43:24;12.40;;;10.35;;
10657;SDS011;5377;43.276;26.930;2023-03-04T10:45:53;13.63;;;10.48;;
10657;SDS011;5377;43.276;26.930;2023-03-04T10:48:22;14.98;;;11.63;;
10657;SDS011;5377;43.276;26.930;2023-03-04T10:50:51;14.52;;;9.80;;
10657;SDS011;5377;43.276;26.930;2023-03-04T10:53:23;12.88;;;9.63;;
10657;SDS011;5377;43.276;26.930;2023-03-04T10:55:57;13.52;;;9.30;;
10657;SDS011;5377;43.276;26.930;2023-03-04T10:58:24;14.35;;;10.32;;
10657;SDS011;5377;43.276;26.930;2023-03-04T11:00:58;12.45;;;10.38;;
10657;SDS011;5377;43.276;26.930;2023-03-04T11:03:31;14.80;;;10.93;;
10657;SDS011;5377;43.276;26.930;2023-03-04T11:08:53;12.32;;;9.77;;
10657;SDS011;5377;43.276;26.930;2023-03-04T11:11:22;13.88;;;10.18;;
10657;SDS011;5377;43.276;26.930;2023-03-04T11:13:51;14.10;;;10.95;;
10657;SDS011;5377;43.276;26.930;2023-03-04T11:16:23;17.40;;;10.88;;
10657;SDS011;5377;43.276;26.930;2023-03-04T11:18:55;14.88;;;10.27;;
10657;SDS011;5377;43.276;26.930;2023-03-04T11:21:27;12.32;;;8.75;;
10657;SDS011;5377;43.276;26.930;2023-03-04T11:23:59;12.15;;;9.40;;
10657;SDS011;5377;43.276;26.930;2023-03-04T11:26:29;11.57;;;9.52;;
10657;SDS011;5377;43.276;26.930;2023-03-04T11:29:04;14.68;;;10.32;;
10657;SDS011;5377;43.276;26.930;2023-03-04T11:31:39;14.30;;;10.77;;
10657;SDS011;5377;43.276;26.930;2023-03-04T11:34:13;13.25;;;11.35;;
10657;SDS011;5377;43.276;26.930;2023-03-04T11:36:49;13.30;;;10.30;;
10657;SDS011;5377;43.276;26.930;2023-03-04T11:39:23;13.77;;;10.90;;
10657;SDS011;5377;43.276;26.930;2023-03-04T11:41:59;12.50;;;10.25;;
10657;SDS011;5377;43.276;26.930;2023-03-04T11:44:30;16.15;;;10.63;;
10657;SDS011;5377;43.276;26.930;2023-03-04T11:47:02;13.38;;;10.30;;
10657;SDS011;5377;43.276;26.930;2023-03-04T11:49:54;13.23;;;10.02;;
10657;SDS011;5377;43.276;26.930;2023-03-04T11:52:46;24.88;;;11.90;;
10657;SDS011;5377;43.276;26.930;2023-03-04T11:55:35;12.02;;;9.40;;
10657;SDS011;5377;43.276;26.930;2023-03-04T11:58:17;11.40;;;10.25;;
10657;SDS011;5377;43.276;26.930;2023-03-04T12:01:00;10.73;;;9.35;;
10657;SDS011;5377;43.276;26.930;2023-03-04T12:03:44;11.27;;;9.32;;
10657;SDS011;5377;43.276;26.930;2023-03-04T12:06:25;15.60;;;11.82;;
10657;SDS011;5377;43.276;26.930;2023-03-04T12:09:02;15.38;;;10.43;;
10657;SDS011;5377;43.276;26.930;2023-03-04T12:11:45;14.15;;;10.07;;
10657;SDS011;5377;43.276;26.930;2023-03-04T12:14:23;11.82;;;9.43;;
10657;SDS011;5377;43.276;26.930;2023-03-04T12:17:02;11.23;;;9.60;;
10657;SDS011;5377;43.276;26.930;2023-03-04T12:19:47;11.85;;;9.63;;
10657;SDS011;5377;43.276;26.930;2023-03-04T12:22:29;15.50;;;10.48;;
10657;SDS011;5377;43.276;26.930;2023-03-04T12:25:09;13.85;;;9.95;;
10657;SDS011;5377;43.276;26.930;2023-03-04T12:27:57;16.05;;;10.70;;
10657;SDS011;5377;43.276;26.930;2023-03-04T12:30:34;22.48;;;12.80;;
10657;SDS011;5377;43.276;26.930;2023-03-04T12:33:16;13.63;;;11.25;;
10657;SDS011;5377;43.276;26.930;2023-03-04T12:35:55;13.70;;;9.73;;
10657;SDS011;5377;43.276;26.930;2023-03-04T12:38:42;10.77;;;8.63;;
10657;SDS011;5377;43.276;26.930;2023-03-04T12:41:22;12.50;;;9.82;;
10657;SDS011;5377;43.276;26.930;2023-03-04T12:44:01;13.75;;;9.52;;
10657;SDS011;5377;43.276;26.930;2023-03-04T12:46:40;17.30;;;9.45;;
10657;SDS011;5377;43.276;26.930;2023-03-04T12:49:21;13.38;;;10.05;;
10657;SDS011;5377;43.276;26.930;2023-03-04T12:52:02;9.35;;;8.25;;
10657;SDS011;5377;43.276;26.930;2023-03-04T12:54:36;11.30;;;9.63;;
10657;SDS011;5377;43.276;26.930;2023-03-04T12:57:08;9.98;;;8.75;;
10657;SDS011;5377;43.276;26.930;2023-03-04T12:59:41;9.90;;;7.57;;
10657;SDS011;5377;43.276;26.930;2023-03-04T13:05:20;9.13;;;7.43;;
10657;SDS011;5377;43.276;26.930;2023-03-04T13:07:55;11.68;;;7.95;;
10657;SDS011;5377;43.276;26.930;2023-03-04T13:10:30;9.63;;;6.18;;
10657;SDS011;5377;43.276;26.930;2023-03-04T13:12:57;8.88;;;6.55;;
10657;SDS011;5377;43.276;26.930;2023-03-04T13:15:31;10.60;;;6.53;;
10657;SDS011;5377;43.276;26.930;2023-03-04T13:18:01;10.43;;;7.18;;
10657;SDS011;5377;43.276;26.930;2023-03-04T13:20:33;11.85;;;8.57;;
10657;SDS011;5377;43.276;26.930;2023-03-04T13:23:02;9.52;;;7.53;;
10657;SDS011;5377;43.276;26.930;2023-03-04T13:25:47;15.18;;;7.68;;
10657;SDS011;5377;43.276;26.930;2023-03-04T13:28:30;7.38;;;5.53;;
10657;SDS011;5377;43.276;26.930;2023-03-04T13:33:50;9.10;;;6.60;;
10657;SDS011;5377;43.276;26.930;2023-03-04T13:36:27;10.02;;;6.90;;
10657;SDS011;5377;43.276;26.930;2023-03-04T13:39:00;10.23;;;7.93;;
10657;SDS011;5377;43.276;26.930;2023-03-04T13:41:28;9.43;;;8.35;;
10657;SDS011;5377;43.276;26.930;2023-03-04T13:43:58;11.73;;;6.13;;
10657;SDS011;5377;43.276;26.930;2023-03-04T13:46:40;11.87;;;7.90;;
10657;SDS011;5377;43.276;26.930;2023-03-04T13:49:15;14.65;;;7.65;;
10657;SDS011;5377;43.276;26.930;2023-03-04T13:51:45;8.77;;;6.55;;
10657;SDS011;5377;43.276;26.930;2023-03-04T13:54:13;9.10;;;6.13;;
10657;SDS011;5377;43.276;26.930;2023-03-04T13:56:43;11.98;;;7.57;;
10657;SDS011;5377;43.276;26.930;2023-03-04T13:59:23;9.43;;;6.50;;
10657;SDS011;5377;43.276;26.930;2023-03-04T14:01:56;9.15;;;6.65;;
10657;SDS011;5377;43.276;26.930;2023-03-04T14:04:32;12.05;;;8.00;;
10657;SDS011;5377;43.276;26.930;2023-03-04T14:07:01;6.55;;;5.88;;
10657;SDS011;5377;43.276;26.930;2023-03-04T14:09:30;9.57;;;7.05;;
10657;SDS011;5377;43.276;26.930;2023-03-04T14:11:58;11.02;;;6.30;;
10657;SDS011;5377;43.276;26.930;2023-03-04T14:14:29;12.35;;;6.65;;
10657;SDS011;5377;43.276;26.930;2023-03-04T14:17:02;9.45;;;7.00;;
10657;SDS011;5377;43.276;26.930;2023-03-04T14:19:33;7.47;;;6.70;;
10657;SDS011;5377;43.276;26.930;2023-03-04T14:22:16;9.07;;;6.70;;
10657;SDS011;5377;43.276;26.930;2023-03-04T14:24:54;9.95;;;7.00;;
10657;SDS011;5377;43.276;26.930;2023-03-04T14:27:21;13.18;;;7.78;;
10657;SDS011;5377;43.276;26.930;2023-03-04T14:29:53;9.00;;;7.22;;
10657;SDS011;5377;43.276;26.930;2023-03-04T14:32:22;13.93;;;7.30;;
10657;SDS011;5377;43.276;26.930;2023-03-04T14:34:49;13.18;;;8.25;;
10657;SDS011;5377;43.276;26.930;2023-03-04T14:37:20;13.75;;;8.43;;
10657;SDS011;5377;43.276;26.930;2023-03-04T14:39:49;10.50;;;6.40;;
10657;SDS011;5377;43.276;26.930;2023-03-04T14:42:20;11.13;;;8.20;;
10657;SDS011;5377;43.276;26.930;2023-03-04T14:44:49;17.70;;;9.15;;
10657;SDS011;5377;43.276;26.930;2023-03-04T14:47:18;14.65;;;8.13;;
10657;SDS011;5377;43.276;26.930;2023-03-04T14:49:49;9.75;;;8.00;;